x

Fred Howard Park, Fl (fhpf1) Weather Station

10:54am - Tue 25th Jul 2017 All times are EDT. -4 hours from GMT.

  • Wind
    2mph, 3mph gusts
  • Air Temp 86°f
  • Sea Pressure 1022mb
  • Fred Howard Park, Fl
  • Fred Howard Park, Fl

More Historic Weather Station data

Upgrade to MSW Pro to gain access to the past 30 days of data for over 8000 Wavebouys and Weather Stations around the globe.

Join Pro

Comparision Forecast

View Surf forecast
   
Tue 07/25 10:54am 2 3 mph 1022mb 86f
10:48am 2 3 mph 1021.9mb 86f
9:54am  -  2 mph 1021.8mb 85f
9:48am  -  0 mph 1021.8mb 85f
8:54am 2 3 mph 1021.5mb 83f
8:48am 2 3 mph 1021.4mb 83f
7:54am 3 6 mph 1020.8mb 80f
7:48am 2 3 mph 1020.7mb 80f
6:54am  -  1 mph 1020mb 81f
6:48am  -  1 mph 1019.9mb 81f
5:54am  -  0 mph 1019.4mb 81f
5:48am  -  0 mph 1019.3mb 81f
4:54am  -  1 mph 1019.1mb 80f
4:48am  -  1 mph 1019.1mb 80f
3:54am 1 2 mph 1019mb 81f
3:48am  -  2 mph 1019mb 81f
2:54am 3 3 mph 1019.4mb 81f
2:48am 3 3 mph 1019.5mb 81f
1:54am 1 3 mph 1019.7mb 84f
1:48am 2 3 mph 1019.7mb 84f
12:54am 3 5 mph 1020mb 84f
12:48am 5 6 mph 1020mb 84f
Mon 07/24 11:54pm 5 6 mph 1020mb 85f
11:48pm 3 5 mph 1020mb 85f
10:54pm 6 7 mph 1019.7mb 85f
10:48pm 6 7 mph 1019.6mb 85f
9:54pm 5 7 mph 1019.2mb 85f
9:48pm 6 7 mph 1019.2mb 85f
8:54pm 8 9 mph 1018.9mb 85f
8:48pm 9 9 mph 1018.7mb 85f
7:54pm 7 9 mph 1018.3mb 85f
7:48pm 7 9 mph 1018.1mb 86f
6:54pm 8 9 mph 1018mb 86f
6:48pm 9 10 mph 1018mb 86f
5:54pm 9 10 mph 1018.2mb 86f
5:48pm 8 9 mph 1018.2mb 86f
4:54pm 10 14 mph 1018mb 86f
4:48pm 11 13 mph 1018mb 86f
3:54pm 14 16 mph 1018mb 85f
3:48pm 13 16 mph 1018.2mb 85f
2:54pm 13 16 mph 1018.9mb 85f
2:48pm 14 16 mph 1018.8mb 85f
1:54pm 10 13 mph 1019.2mb 85f
1:48pm 10 13 mph 1019.3mb 86f
12:54pm 11 13 mph 1019mb 85f
12:48pm 11 13 mph 1019mb 85f
11:54am 10 11 mph 1019.3mb 85f
11:48am 10 11 mph 1019.2mb 85f
10:54am 8 10 mph 1019.2mb 85f
10:48am 8 9 mph 1019.2mb 85f
9:54am 9 10 mph 1019.1mb 85f
9:48am 9 10 mph 1019mb 85f
8:54am 10 11 mph 1018.8mb 85f
8:48am 10 11 mph 1018.7mb 84f
7:54am 11 13 mph 1018.4mb 84f
7:48am 11 14 mph 1018.4mb 84f
6:54am 10 13 mph 1017.9mb 84f
6:48am 11 13 mph 1017.8mb 84f
5:54am 11 15 mph 1016.8mb 83f
5:48am 7 9 mph 1016.7mb 81f
4:54am 5 6 mph 1016.6mb 79f
4:48am 5 7 mph 1016.7mb 79f
3:54am 6 7 mph 1016.7mb 79f
3:48am 5 7 mph 1016.7mb 79f
2:54am 8 11 mph 1017.4mb 79f
2:48am 2 5 mph 1017.3mb 79f
1:54am 7 7 mph 1017.2mb 80f
1:48am 6 8 mph 1017.3mb 80f
12:54am 6 8 mph 1017.8mb 80f
12:48am 7 8 mph 1017.8mb 80f
Sun 07/23 11:54pm 6 6 mph 1017.7mb 80f
11:48pm 6 7 mph 1017.7mb 80f
10:54pm 7 8 mph 1017mb 80f
10:48pm 7 8 mph 1017mb 80f
9:54pm 7 9 mph 1016.3mb 81f
9:48pm 8 10 mph 1016.3mb 81f
8:54pm 10 14 mph 1015.7mb 81f
8:48pm 13 14 mph 1015.8mb 81f
7:54pm 11 13 mph 1015.6mb 81f
7:48pm 11 13 mph 1015.8mb 80f
6:54pm 14 16 mph 1015.5mb 81f
6:48pm 15 16 mph 1015.8mb 81f
5:54pm 8 10 mph 1016.3mb 80f
5:48pm 7 9 mph 1016.7mb 80f
4:54pm 2 3 mph 1017.5mb 79f
4:48pm 2 3 mph 1017.6mb 79f
3:54pm 5 7 mph 1017.9mb 78f
3:48pm 6 8 mph 1017.8mb 77f
2:54pm 3 6 mph 1018.6mb 77f
2:48pm 3 5 mph 1018.7mb 77f
1:54pm 3 6 mph 1019.1mb 77f
12:54pm 7 9 mph 1019.8mb 77f
12:48pm 5 6 mph 1019.6mb 77f
11:54am 7 8 mph 1019.6mb 77f
11:48am 7 8 mph 1019.6mb 77f
10:54am 7 9 mph 1019mb 77f
10:48am 8 9 mph 1019.1mb 76f
9:54am 3 6 mph 1018.9mb 77f
9:48am 7 9 mph 1019mb 77f
8:54am 16 20 mph 1019.2mb 76f
8:48am 22 28 mph 1019.4mb 77f
7:54am 11 13 mph 1018mb 80f
7:48am 10 11 mph 1018mb 80f
6:54am 13 15 mph 1016.6mb 80f
6:48am 11 14 mph 1016.6mb 80f
5:54am 8 9 mph 1016.8mb 79f
5:48am 7 8 mph 1016.7mb 78f
4:54am 7 9 mph 1016.7mb 79f
4:48am 9 11 mph 1016.8mb 79f
3:54am 7 8 mph 1016.7mb 80f
3:48am 8 9 mph 1016.7mb 80f
2:54am 7 8 mph 1017mb 80f
2:48am 7 8 mph 1017mb 80f
1:54am 6 7 mph 1017.5mb 82f
1:48am 6 7 mph 1017.6mb 82f
12:54am 8 9 mph 1017.8mb 83f
12:48am 9 10 mph 1017.8mb 83f
Sat 07/22 11:54pm 11 13 mph 1017.9mb 83f
11:48pm 10 14 mph 1018mb 83f
10:54pm 9 10 mph 1017.5mb 83f
10:48pm 10 13 mph 1017.5mb 83f
9:54pm 13 14 mph 1017.4mb 83f
9:48pm 11 14 mph 1017.5mb 83f
8:54pm 8 8 mph 1017.7mb 84f
8:48pm 9 10 mph 1017.9mb 83f
7:54pm 7 9 mph 1018mb 84f
7:48pm 8 9 mph 1018mb 84f
6:54pm 7 9 mph 1017.9mb 83f
6:48pm 5 7 mph 1017.9mb 83f
5:54pm 2 3 mph 1018.1mb 83f
5:48pm 2 3 mph 1018.1mb 83f
4:54pm  -  1 mph 1017.9mb 84f
4:48pm  -  2 mph 1018mb 84f